sensor_id;sensor_type;location;lat;lon;timestamp;temperature;humidity
14924;DHT22;7554;43.600;1.480;2023-06-10T00:01:46;16.10;1.00
14924;DHT22;7554;43.600;1.480;2023-06-10T00:04:14;16.10;1.00
14924;DHT22;7554;43.600;1.480;2023-06-10T00:06:42;16.10;1.00
14924;DHT22;7554;43.600;1.480;2023-06-10T00:09:10;16.00;1.00
14924;DHT22;7554;43.600;1.480;2023-06-10T00:11:40;16.00;1.00
14924;DHT22;7554;43.600;1.480;2023-06-10T00:14:08;16.00;1.00
14924;DHT22;7554;43.600;1.480;2023-06-10T00:16:37;16.00;1.00
14924;DHT22;7554;43.600;1.480;2023-06-10T00:19:04;16.00;1.00
14924;DHT22;7554;43.600;1.480;2023-06-10T00:21:33;16.10;1.00
14924;DHT22;7554;43.600;1.480;2023-06-10T00:24:04;16.10;1.00
14924;DHT22;7554;43.600;1.480;2023-06-10T00:26:31;16.10;1.00
14924;DHT22;7554;43.600;1.480;2023-06-10T00:28:59;16.10;1.00
14924;DHT22;7554;43.600;1.480;2023-06-10T00:31:26;16.10;1.00
14924;DHT22;7554;43.600;1.480;2023-06-10T00:33:55;16.10;1.00
14924;DHT22;7554;43.600;1.480;2023-06-10T00:36:22;16.10;1.00
14924;DHT22;7554;43.600;1.480;2023-06-10T00:38:50;16.10;1.00
14924;DHT22;7554;43.600;1.480;2023-06-10T00:41:17;16.10;1.00
14924;DHT22;7554;43.600;1.480;2023-06-10T00:43:44;16.00;1.00
14924;DHT22;7554;43.600;1.480;2023-06-10T00:46:12;16.10;1.00
14924;DHT22;7554;43.600;1.480;2023-06-10T00:48:40;16.10;1.00
14924;DHT22;7554;43.600;1.480;2023-06-10T00:51:11;16.00;1.00
14924;DHT22;7554;43.600;1.480;2023-06-10T00:53:40;16.00;1.00
14924;DHT22;7554;43.600;1.480;2023-06-10T00:56:08;16.10;1.00
14924;DHT22;7554;43.600;1.480;2023-06-10T00:58:36;16.10;1.00
14924;DHT22;7554;43.600;1.480;2023-06-10T01:01:03;16.10;1.00
14924;DHT22;7554;43.600;1.480;2023-06-10T01:03:31;16.00;1.00
14924;DHT22;7554;43.600;1.480;2023-06-10T01:06:08;16.00;1.00
14924;DHT22;7554;43.600;1.480;2023-06-10T01:08:44;15.90;1.00
14924;DHT22;7554;43.600;1.480;2023-06-10T01:11:19;15.90;1.00
14924;DHT22;7554;43.600;1.480;2023-06-10T01:13:48;15.90;1.00
14924;DHT22;7554;43.600;1.480;2023-06-10T01:16:17;15.80;1.00
14924;DHT22;7554;43.600;1.480;2023-06-10T01:18:46;15.80;1.00
14924;DHT22;7554;43.600;1.480;2023-06-10T01:21:19;15.70;1.00
14924;DHT22;7554;43.600;1.480;2023-06-10T01:23:47;15.80;1.00
14924;DHT22;7554;43.600;1.480;2023-06-10T01:26:15;15.80;1.00
14924;DHT22;7554;43.600;1.480;2023-06-10T01:28:49;15.80;1.00
14924;DHT22;7554;43.600;1.480;2023-06-10T01:31:26;15.70;1.00
14924;DHT22;7554;43.600;1.480;2023-06-10T01:34:00;15.60;1.00
14924;DHT22;7554;43.600;1.480;2023-06-10T01:36:30;15.60;1.00
14924;DHT22;7554;43.600;1.480;2023-06-10T01:38:59;15.50;1.00
14924;DHT22;7554;43.600;1.480;2023-06-10T01:41:28;15.50;1.00
14924;DHT22;7554;43.600;1.480;2023-06-10T01:43:56;15.50;1.00
14924;DHT22;7554;43.600;1.480;2023-06-10T01:46:23;15.50;1.00
14924;DHT22;7554;43.600;1.480;2023-06-10T01:48:50;15.50;1.00
14924;DHT22;7554;43.600;1.480;2023-06-10T01:51:18;15.50;1.00
14924;DHT22;7554;43.600;1.480;2023-06-10T01:53:46;15.60;1.00
14924;DHT22;7554;43.600;1.480;2023-06-10T01:56:14;15.60;1.00
14924;DHT22;7554;43.600;1.480;2023-06-10T01:58:44;15.60;1.00
14924;DHT22;7554;43.600;1.480;2023-06-10T02:01:12;15.60;1.00
14924;DHT22;7554;43.600;1.480;2023-06-10T02:03:39;15.70;1.00
14924;DHT22;7554;43.600;1.480;2023-06-10T02:06:06;15.70;1.00
14924;DHT22;7554;43.600;1.480;2023-06-10T02:08:34;15.70;1.00
14924;DHT22;7554;43.600;1.480;2023-06-10T02:11:02;15.70;1.00
14924;DHT22;7554;43.600;1.480;2023-06-10T02:13:30;15.70;1.00
14924;DHT22;7554;43.600;1.480;2023-06-10T02:15:57;15.60;1.00
14924;DHT22;7554;43.600;1.480;2023-06-10T02:18:25;15.70;1.00
14924;DHT22;7554;43.600;1.480;2023-06-10T02:20:54;15.60;1.00
14924;DHT22;7554;43.600;1.480;2023-06-10T02:23:21;15.70;1.00
14924;DHT22;7554;43.600;1.480;2023-06-10T02:25:48;15.70;1.00
14924;DHT22;7554;43.600;1.480;2023-06-10T02:28:17;15.60;1.00
14924;DHT22;7554;43.600;1.480;2023-06-10T02:30:45;15.60;1.00
14924;DHT22;7554;43.600;1.480;2023-06-10T02:33:12;15.60;1.00
14924;DHT22;7554;43.600;1.480;2023-06-10T02:35:40;15.60;1.00
14924;DHT22;7554;43.600;1.480;2023-06-10T02:38:07;15.70;1.00
14924;DHT22;7554;43.600;1.480;2023-06-10T02:40:34;15.60;1.00
14924;DHT22;7554;43.600;1.480;2023-06-10T02:43:02;15.60;1.00
14924;DHT22;7554;43.600;1.480;2023-06-10T02:45:30;15.60;1.00
14924;DHT22;7554;43.600;1.480;2023-06-10T02:47:58;15.60;1.00
14924;DHT22;7554;43.600;1.480;2023-06-10T02:50:25;15.70;1.00
14924;DHT22;7554;43.600;1.480;2023-06-10T02:52:54;15.60;1.00
14924;DHT22;7554;43.600;1.480;2023-06-10T02:55:21;15.60;1.00
14924;DHT22;7554;43.600;1.480;2023-06-10T02:57:52;15.60;1.00
14924;DHT22;7554;43.600;1.480;2023-06-10T03:00:20;15.60;1.00
14924;DHT22;7554;43.600;1.480;2023-06-10T03:02:48;15.60;1.00
14924;DHT22;7554;43.600;1.480;2023-06-10T03:05:16;15.60;1.00
14924;DHT22;7554;43.600;1.480;2023-06-10T03:07:44;15.50;1.00
14924;DHT22;7554;43.600;1.480;2023-06-10T03:10:12;15.50;1.00
14924;DHT22;7554;43.600;1.480;2023-06-10T03:12:39;15.50;1.00
14924;DHT22;7554;43.600;1.480;2023-06-10T03:15:07;15.50;1.00
14924;DHT22;7554;43.600;1.480;2023-06-10T03:17:34;15.40;1.00
14924;DHT22;7554;43.600;1.480;2023-06-10T03:20:04;15.40;1.00
14924;DHT22;7554;43.600;1.480;2023-06-10T03:22:33;15.40;1.00
14924;DHT22;7554;43.600;1.480;2023-06-10T03:25:01;15.30;1.00
14924;DHT22;7554;43.600;1.480;2023-06-10T03:27:28;15.30;1.00
14924;DHT22;7554;43.600;1.480;2023-06-10T03:29:56;15.20;1.00
14924;DHT22;7554;43.600;1.480;2023-06-10T03:32:23;15.20;1.00
14924;DHT22;7554;43.600;1.480;2023-06-10T03:34:50;15.20;1.00
14924;DHT22;7554;43.600;1.480;2023-06-10T03:37:24;15.20;1.00
14924;DHT22;7554;43.600;1.480;2023-06-10T03:39:51;15.20;1.00
14924;DHT22;7554;43.600;1.480;2023-06-10T03:42:19;15.20;1.00
14924;DHT22;7554;43.600;1.480;2023-06-10T03:44:46;15.20;1.00
14924;DHT22;7554;43.600;1.480;2023-06-10T03:47:13;15.20;1.00
14924;DHT22;7554;43.600;1.480;2023-06-10T03:49:41;15.20;1.00
14924;DHT22;7554;43.600;1.480;2023-06-10T03:52:09;15.20;1.00
14924;DHT22;7554;43.600;1.480;2023-06-10T03:54:38;15.20;1.00
14924;DHT22;7554;43.600;1.480;2023-06-10T03:57:05;15.20;1.00
14924;DHT22;7554;43.600;1.480;2023-06-10T03:59:32;15.20;1.00
14924;DHT22;7554;43.600;1.480;2023-06-10T04:02:00;15.30;1.00
14924;DHT22;7554;43.600;1.480;2023-06-10T04:04:27;15.30;1.00
14924;DHT22;7554;43.600;1.480;2023-06-10T04:06:55;15.20;1.00
14924;DHT22;7554;43.600;1.480;2023-06-10T04:09:23;15.20;1.00
14924;DHT22;7554;43.600;1.480;2023-06-10T04:11:51;15.20;1.00
14924;DHT22;7554;43.600;1.480;2023-06-10T04:14:19;15.20;1.00
14924;DHT22;7554;43.600;1.480;2023-06-10T04:16:46;15.20;1.00
14924;DHT22;7554;43.600;1.480;2023-06-10T04:19:13;15.20;1.00
14924;DHT22;7554;43.600;1.480;2023-06-10T04:21:41;15.20;1.00
14924;DHT22;7554;43.600;1.480;2023-06-10T04:24:08;15.30;1.00
14924;DHT22;7554;43.600;1.480;2023-06-10T04:26:36;15.40;1.00
14924;DHT22;7554;43.600;1.480;2023-06-10T04:29:04;15.90;1.00
14924;DHT22;7554;43.600;1.480;2023-06-10T04:31:32;16.30;1.00
14924;DHT22;7554;43.600;1.480;2023-06-10T04:33:59;16.80;1.00
14924;DHT22;7554;43.600;1.480;2023-06-10T04:36:27;17.40;1.00
14924;DHT22;7554;43.600;1.480;2023-06-10T04:38:55;17.80;1.00
14924;DHT22;7554;43.600;1.480;2023-06-10T04:41:22;18.20;1.00
14924;DHT22;7554;43.600;1.480;2023-06-10T04:43:49;18.60;1.00
14924;DHT22;7554;43.600;1.480;2023-06-10T04:46:18;19.00;1.00
14924;DHT22;7554;43.600;1.480;2023-06-10T04:48:45;19.50;1.00
14924;DHT22;7554;43.600;1.480;2023-06-10T04:51:14;20.00;1.00
14924;DHT22;7554;43.600;1.480;2023-06-10T04:53:42;20.20;1.00
14924;DHT22;7554;43.600;1.480;2023-06-10T04:56:10;19.80;1.00
14924;DHT22;7554;43.600;1.480;2023-06-10T04:58:37;18.70;1.00
14924;DHT22;7554;43.600;1.480;2023-06-10T05:01:05;19.70;1.00
14924;DHT22;7554;43.600;1.480;2023-06-10T05:03:33;19.10;1.00
14924;DHT22;7554;43.600;1.480;2023-06-10T05:06:01;18.30;1.00
14924;DHT22;7554;43.600;1.480;2023-06-10T05:08:28;18.70;1.00
14924;DHT22;7554;43.600;1.480;2023-06-10T05:10:55;20.70;1.00
14924;DHT22;7554;43.600;1.480;2023-06-10T05:13:24;21.80;1.00
14924;DHT22;7554;43.600;1.480;2023-06-10T05:15:51;22.70;1.00
14924;DHT22;7554;43.600;1.480;2023-06-10T05:18:18;23.00;1.00
14924;DHT22;7554;43.600;1.480;2023-06-10T05:20:47;23.60;1.00
14924;DHT22;7554;43.600;1.480;2023-06-10T05:23:15;24.30;1.00
14924;DHT22;7554;43.600;1.480;2023-06-10T05:25:42;24.90;1.00
14924;DHT22;7554;43.600;1.480;2023-06-10T05:28:09;25.10;1.00
14924;DHT22;7554;43.600;1.480;2023-06-10T05:30:37;25.60;1.00
14924;DHT22;7554;43.600;1.480;2023-06-10T05:33:05;25.80;1.00
14924;DHT22;7554;43.600;1.480;2023-06-10T05:35:32;26.10;1.00
14924;DHT22;7554;43.600;1.480;2023-06-10T05:38:01;26.60;1.00
14924;DHT22;7554;43.600;1.480;2023-06-10T05:40:28;26.80;1.00
14924;DHT22;7554;43.600;1.480;2023-06-10T05:42:55;27.10;1.00
14924;DHT22;7554;43.600;1.480;2023-06-10T05:45:23;27.30;1.00
14924;DHT22;7554;43.600;1.480;2023-06-10T05:47:50;27.30;1.00
14924;DHT22;7554;43.600;1.480;2023-06-10T05:50:18;27.70;1.00
14924;DHT22;7554;43.600;1.480;2023-06-10T05:52:45;28.30;1.00
14924;DHT22;7554;43.600;1.480;2023-06-10T05:55:14;28.70;1.00
14924;DHT22;7554;43.600;1.480;2023-06-10T05:57:41;29.10;1.00
14924;DHT22;7554;43.600;1.480;2023-06-10T06:00:10;28.50;1.00
14924;DHT22;7554;43.600;1.480;2023-06-10T06:02:37;29.20;1.00
14924;DHT22;7554;43.600;1.480;2023-06-10T06:05:05;29.80;1.00
14924;DHT22;7554;43.600;1.480;2023-06-10T06:07:33;30.50;1.00
14924;DHT22;7554;43.600;1.480;2023-06-10T06:10:00;30.60;1.00
14924;DHT22;7554;43.600;1.480;2023-06-10T06:12:29;31.20;1.00
14924;DHT22;7554;43.600;1.480;2023-06-10T06:14:56;31.60;1.00
14924;DHT22;7554;43.600;1.480;2023-06-10T06:17:23;32.00;1.00
14924;DHT22;7554;43.600;1.480;2023-06-10T06:19:51;32.60;1.00
14924;DHT22;7554;43.600;1.480;2023-06-10T06:22:18;33.10;1.00
14924;DHT22;7554;43.600;1.480;2023-06-10T06:24:47;33.20;1.00
14924;DHT22;7554;43.600;1.480;2023-06-10T06:27:15;33.90;1.00
14924;DHT22;7554;43.600;1.480;2023-06-10T06:29:44;33.90;1.00
14924;DHT22;7554;43.600;1.480;2023-06-10T06:32:11;33.30;1.00
14924;DHT22;7554;43.600;1.480;2023-06-10T06:34:38;33.30;1.00
14924;DHT22;7554;43.600;1.480;2023-06-10T06:37:06;34.10;1.00
14924;DHT22;7554;43.600;1.480;2023-06-10T06:39:33;34.70;1.00
14924;DHT22;7554;43.600;1.480;2023-06-10T06:42:00;35.10;1.00
14924;DHT22;7554;43.600;1.480;2023-06-10T06:44:28;34.90;1.00
14924;DHT22;7554;43.600;1.480;2023-06-10T06:46:57;35.00;1.00
14924;DHT22;7554;43.600;1.480;2023-06-10T06:49:24;35.80;1.00
14924;DHT22;7554;43.600;1.480;2023-06-10T06:51:51;36.00;1.00
14924;DHT22;7554;43.600;1.480;2023-06-10T06:54:19;36.20;1.00
14924;DHT22;7554;43.600;1.480;2023-06-10T06:56:46;36.10;1.00
14924;DHT22;7554;43.600;1.480;2023-06-10T06:59:13;36.10;1.00
14924;DHT22;7554;43.600;1.480;2023-06-10T07:01:42;36.50;1.00
14924;DHT22;7554;43.600;1.480;2023-06-10T07:04:11;36.90;1.00
14924;DHT22;7554;43.600;1.480;2023-06-10T07:06:38;37.40;1.00
14924;DHT22;7554;43.600;1.480;2023-06-10T07:09:06;37.60;1.00
14924;DHT22;7554;43.600;1.480;2023-06-10T07:11:34;37.80;1.00
14924;DHT22;7554;43.600;1.480;2023-06-10T07:14:01;38.20;1.00
14924;DHT22;7554;43.600;1.480;2023-06-10T07:16:29;38.70;1.00
14924;DHT22;7554;43.600;1.480;2023-06-10T07:18:56;39.00;1.00
14924;DHT22;7554;43.600;1.480;2023-06-10T07:21:25;38.90;1.00
14924;DHT22;7554;43.600;1.480;2023-06-10T07:23:54;39.30;1.00
14924;DHT22;7554;43.600;1.480;2023-06-10T07:26:22;39.40;1.00
14924;DHT22;7554;43.600;1.480;2023-06-10T07:28:49;39.50;1.00
14924;DHT22;7554;43.600;1.480;2023-06-10T07:31:17;39.80;1.00
14924;DHT22;7554;43.600;1.480;2023-06-10T07:33:44;40.50;1.00
14924;DHT22;7554;43.600;1.480;2023-06-10T07:36:11;40.60;1.00
14924;DHT22;7554;43.600;1.480;2023-06-10T07:38:40;41.00;1.00
14924;DHT22;7554;43.600;1.480;2023-06-10T07:41:08;40.70;1.00
14924;DHT22;7554;43.600;1.480;2023-06-10T07:43:35;41.10;1.00
14924;DHT22;7554;43.600;1.480;2023-06-10T07:46:02;41.40;1.00
14924;DHT22;7554;43.600;1.480;2023-06-10T07:48:31;41.40;1.00
14924;DHT22;7554;43.600;1.480;2023-06-10T07:50:58;41.50;1.00
14924;DHT22;7554;43.600;1.480;2023-06-10T07:53:26;41.90;1.00
14924;DHT22;7554;43.600;1.480;2023-06-10T07:55:55;41.80;1.00
14924;DHT22;7554;43.600;1.480;2023-06-10T07:58:22;42.20;1.00
14924;DHT22;7554;43.600;1.480;2023-06-10T08:00:49;41.80;1.00
14924;DHT22;7554;43.600;1.480;2023-06-10T08:03:16;41.60;1.00
14924;DHT22;7554;43.600;1.480;2023-06-10T08:05:44;42.20;1.00
14924;DHT22;7554;43.600;1.480;2023-06-10T08:08:11;42.10;1.00
14924;DHT22;7554;43.600;1.480;2023-06-10T08:10:38;42.50;1.00
14924;DHT22;7554;43.600;1.480;2023-06-10T08:13:08;42.80;1.00
14924;DHT22;7554;43.600;1.480;2023-06-10T08:15:35;43.30;1.00
14924;DHT22;7554;43.600;1.480;2023-06-10T08:18:02;42.80;1.00
14924;DHT22;7554;43.600;1.480;2023-06-10T08:20:30;43.00;1.00
14924;DHT22;7554;43.600;1.480;2023-06-10T08:22:58;43.30;1.00
14924;DHT22;7554;43.600;1.480;2023-06-10T08:25:25;42.90;1.00
14924;DHT22;7554;43.600;1.480;2023-06-10T08:27:52;43.20;1.00
14924;DHT22;7554;43.600;1.480;2023-06-10T08:30:24;43.50;1.00
14924;DHT22;7554;43.600;1.480;2023-06-10T08:32:51;43.10;1.00
14924;DHT22;7554;43.600;1.480;2023-06-10T08:35:19;43.80;1.00
14924;DHT22;7554;43.600;1.480;2023-06-10T08:37:46;43.80;1.00
14924;DHT22;7554;43.600;1.480;2023-06-10T08:40:14;43.40;1.00
14924;DHT22;7554;43.600;1.480;2023-06-10T08:42:45;44.00;1.00
14924;DHT22;7554;43.600;1.480;2023-06-10T08:45:17;44.10;1.00
14924;DHT22;7554;43.600;1.480;2023-06-10T08:47:50;44.70;1.00
14924;DHT22;7554;43.600;1.480;2023-06-10T08:50:19;44.70;1.00
14924;DHT22;7554;43.600;1.480;2023-06-10T08:52:48;44.70;1.00
14924;DHT22;7554;43.600;1.480;2023-06-10T08:55:21;44.40;1.00
14924;DHT22;7554;43.600;1.480;2023-06-10T08:57:52;43.60;1.00
14924;DHT22;7554;43.600;1.480;2023-06-10T09:00:19;43.60;1.00
14924;DHT22;7554;43.600;1.480;2023-06-10T09:02:48;44.20;1.00
14924;DHT22;7554;43.600;1.480;2023-06-10T09:05:17;44.40;1.00
14924;DHT22;7554;43.600;1.480;2023-06-10T09:07:46;44.20;1.00
14924;DHT22;7554;43.600;1.480;2023-06-10T09:10:14;44.70;1.00
14924;DHT22;7554;43.600;1.480;2023-06-10T09:12:41;45.30;1.00
14924;DHT22;7554;43.600;1.480;2023-06-10T09:15:09;44.50;1.00
14924;DHT22;7554;43.600;1.480;2023-06-10T09:17:38;44.80;1.00
14924;DHT22;7554;43.600;1.480;2023-06-10T09:20:09;45.10;1.00
14924;DHT22;7554;43.600;1.480;2023-06-10T09:22:37;45.40;1.00
14924;DHT22;7554;43.600;1.480;2023-06-10T09:25:06;45.20;1.00
14924;DHT22;7554;43.600;1.480;2023-06-10T09:27:44;45.60;1.00
14924;DHT22;7554;43.600;1.480;2023-06-10T09:30:24;45.20;1.00
14924;DHT22;7554;43.600;1.480;2023-06-10T09:32:53;44.70;1.00
14924;DHT22;7554;43.600;1.480;2023-06-10T09:35:23;44.50;1.00
14924;DHT22;7554;43.600;1.480;2023-06-10T09:37:52;45.40;1.00
14924;DHT22;7554;43.600;1.480;2023-06-10T09:40:20;44.80;1.00
14924;DHT22;7554;43.600;1.480;2023-06-10T09:42:53;44.40;1.00
14924;DHT22;7554;43.600;1.480;2023-06-10T09:45:21;44.30;1.00
14924;DHT22;7554;43.600;1.480;2023-06-10T09:47:52;44.80;1.00
14924;DHT22;7554;43.600;1.480;2023-06-10T09:50:20;44.40;1.00
14924;DHT22;7554;43.600;1.480;2023-06-10T09:52:49;44.20;1.00
14924;DHT22;7554;43.600;1.480;2023-06-10T09:55:17;43.50;1.00
14924;DHT22;7554;43.600;1.480;2023-06-10T09:57:49;43.80;1.00
14924;DHT22;7554;43.600;1.480;2023-06-10T10:00:17;42.30;1.00
14924;DHT22;7554;43.600;1.480;2023-06-10T10:02:48;38.10;1.00
14924;DHT22;7554;43.600;1.480;2023-06-10T10:05:18;35.50;1.00
14924;DHT22;7554;43.600;1.480;2023-06-10T10:07:47;33.80;1.00
14924;DHT22;7554;43.600;1.480;2023-06-10T10:10:16;32.80;1.00
14924;DHT22;7554;43.600;1.480;2023-06-10T10:12:45;32.40;1.00
14924;DHT22;7554;43.600;1.480;2023-06-10T10:15:13;32.30;1.00
14924;DHT22;7554;43.600;1.480;2023-06-10T10:17:52;31.60;1.00
14924;DHT22;7554;43.600;1.480;2023-06-10T10:20:22;31.90;1.00
14924;DHT22;7554;43.600;1.480;2023-06-10T10:22:52;31.90;1.00
14924;DHT22;7554;43.600;1.480;2023-06-10T10:25:25;31.70;1.00
14924;DHT22;7554;43.600;1.480;2023-06-10T10:27:57;31.90;1.00
14924;DHT22;7554;43.600;1.480;2023-06-10T10:30:26;31.80;1.00
14924;DHT22;7554;43.600;1.480;2023-06-10T10:32:58;31.60;1.00
14924;DHT22;7554;43.600;1.480;2023-06-10T10:35:27;31.50;1.00
14924;DHT22;7554;43.600;1.480;2023-06-10T10:37:56;31.10;1.00
14924;DHT22;7554;43.600;1.480;2023-06-10T10:40:24;30.30;1.00
14924;DHT22;7554;43.600;1.480;2023-06-10T10:42:52;30.50;1.00
14924;DHT22;7554;43.600;1.480;2023-06-10T10:45:22;30.80;1.00
14924;DHT22;7554;43.600;1.480;2023-06-10T10:47:52;29.80;1.00
14924;DHT22;7554;43.600;1.480;2023-06-10T10:50:21;30.30;1.00
14924;DHT22;7554;43.600;1.480;2023-06-10T10:52:55;30.20;1.00
14924;DHT22;7554;43.600;1.480;2023-06-10T10:55:23;30.00;1.00
14924;DHT22;7554;43.600;1.480;2023-06-10T10:57:57;30.40;1.00
14924;DHT22;7554;43.600;1.480;2023-06-10T11:00:28;30.40;1.00
14924;DHT22;7554;43.600;1.480;2023-06-10T11:02:58;30.10;1.00
14924;DHT22;7554;43.600;1.480;2023-06-10T11:05:36;30.40;1.00
14924;DHT22;7554;43.600;1.480;2023-06-10T11:08:07;30.50;1.00
14924;DHT22;7554;43.600;1.480;2023-06-10T11:10:35;30.60;1.00
14924;DHT22;7554;43.600;1.480;2023-06-10T11:13:07;30.30;1.00
14924;DHT22;7554;43.600;1.480;2023-06-10T11:15:39;30.40;1.00
14924;DHT22;7554;43.600;1.480;2023-06-10T11:18:11;30.50;1.00
14924;DHT22;7554;43.600;1.480;2023-06-10T11:20:55;30.50;1.00
14924;DHT22;7554;43.600;1.480;2023-06-10T11:23:32;30.50;1.00
14924;DHT22;7554;43.600;1.480;2023-06-10T11:26:17;30.50;1.00
14924;DHT22;7554;43.600;1.480;2023-06-10T11:29:12;30.60;1.00
14924;DHT22;7554;43.600;1.480;2023-06-10T11:31:44;30.50;1.00
14924;DHT22;7554;43.600;1.480;2023-06-10T11:34:12;30.50;1.00
14924;DHT22;7554;43.600;1.480;2023-06-10T11:36:41;30.30;1.00
14924;DHT22;7554;43.600;1.480;2023-06-10T11:39:12;30.30;1.00
14924;DHT22;7554;43.600;1.480;2023-06-10T11:41:40;30.20;1.00
14924;DHT22;7554;43.600;1.480;2023-06-10T11:44:11;30.40;1.00
14924;DHT22;7554;43.600;1.480;2023-06-10T11:46:39;30.50;1.00
14924;DHT22;7554;43.600;1.480;2023-06-10T11:49:08;30.70;1.00
14924;DHT22;7554;43.600;1.480;2023-06-10T11:51:36;30.40;1.00
14924;DHT22;7554;43.600;1.480;2023-06-10T11:54:05;30.50;1.00
14924;DHT22;7554;43.600;1.480;2023-06-10T11:56:34;30.50;1.00
14924;DHT22;7554;43.600;1.480;2023-06-10T11:59:04;30.50;1.00
14924;DHT22;7554;43.600;1.480;2023-06-10T12:01:34;30.70;1.00
14924;DHT22;7554;43.600;1.480;2023-06-10T12:04:04;30.50;1.00
14924;DHT22;7554;43.600;1.480;2023-06-10T12:06:44;30.00;1.00
14924;DHT22;7554;43.600;1.480;2023-06-10T12:09:20;30.10;1.00
14924;DHT22;7554;43.600;1.480;2023-06-10T12:11:51;30.50;1.00
14924;DHT22;7554;43.600;1.480;2023-06-10T12:14:54;30.50;1.00
14924;DHT22;7554;43.600;1.480;2023-06-10T12:17:24;30.70;1.00
14924;DHT22;7554;43.600;1.480;2023-06-10T12:20:04;30.50;1.00
14924;DHT22;7554;43.600;1.480;2023-06-10T12:22:36;30.50;1.00
14924;DHT22;7554;43.600;1.480;2023-06-10T12:25:05;30.20;1.00
14924;DHT22;7554;43.600;1.480;2023-06-10T12:27:35;30.10;1.00
14924;DHT22;7554;43.600;1.480;2023-06-10T12:30:04;30.00;1.00
14924;DHT22;7554;43.600;1.480;2023-06-10T12:32:36;29.50;1.00
14924;DHT22;7554;43.600;1.480;2023-06-10T12:35:04;29.70;1.00
14924;DHT22;7554;43.600;1.480;2023-06-10T12:37:32;30.00;1.00
14924;DHT22;7554;43.600;1.480;2023-06-10T12:40:01;30.20;1.00
14924;DHT22;7554;43.600;1.480;2023-06-10T12:42:29;30.20;1.00
14924;DHT22;7554;43.600;1.480;2023-06-10T12:44:58;30.20;1.00
14924;DHT22;7554;43.600;1.480;2023-06-10T12:47:30;29.80;1.00
14924;DHT22;7554;43.600;1.480;2023-06-10T12:49:58;29.70;1.00
14924;DHT22;7554;43.600;1.480;2023-06-10T12:52:26;29.90;1.00
14924;DHT22;7554;43.600;1.480;2023-06-10T12:54:53;29.20;1.00
14924;DHT22;7554;43.600;1.480;2023-06-10T12:57:21;29.40;1.00
14924;DHT22;7554;43.600;1.480;2023-06-10T12:59:48;29.30;1.00
14924;DHT22;7554;43.600;1.480;2023-06-10T13:02:19;29.50;1.00
14924;DHT22;7554;43.600;1.480;2023-06-10T13:04:49;28.60;1.00
14924;DHT22;7554;43.600;1.480;2023-06-10T13:07:17;28.50;1.00
14924;DHT22;7554;43.600;1.480;2023-06-10T13:09:44;28.90;1.00
14924;DHT22;7554;43.600;1.480;2023-06-10T13:12:14;28.90;1.00
14924;DHT22;7554;43.600;1.480;2023-06-10T13:14:43;29.10;1.00
14924;DHT22;7554;43.600;1.480;2023-06-10T13:17:10;28.90;1.00
14924;DHT22;7554;43.600;1.480;2023-06-10T13:19:39;28.70;1.00
14924;DHT22;7554;43.600;1.480;2023-06-10T13:22:06;28.90;1.00
14924;DHT22;7554;43.600;1.480;2023-06-10T13:24:34;29.00;1.00
14924;DHT22;7554;43.600;1.480;2023-06-10T13:27:01;28.70;1.00
14924;DHT22;7554;43.600;1.480;2023-06-10T13:29:28;28.60;1.00
14924;DHT22;7554;43.600;1.480;2023-06-10T13:31:56;29.00;1.00
14924;DHT22;7554;43.600;1.480;2023-06-10T13:34:24;29.10;1.00
14924;DHT22;7554;43.600;1.480;2023-06-10T13:36:52;29.10;1.00
14924;DHT22;7554;43.600;1.480;2023-06-10T13:39:20;29.10;1.00
14924;DHT22;7554;43.600;1.480;2023-06-10T13:41:47;29.10;1.00
14924;DHT22;7554;43.600;1.480;2023-06-10T13:44:14;29.30;1.00
14924;DHT22;7554;43.600;1.480;2023-06-10T13:46:41;29.30;1.00
14924;DHT22;7554;43.600;1.480;2023-06-10T13:49:09;29.40;1.00
14924;DHT22;7554;43.600;1.480;2023-06-10T13:51:37;29.10;1.00
14924;DHT22;7554;43.600;1.480;2023-06-10T13:54:06;28.80;1.00
14924;DHT22;7554;43.600;1.480;2023-06-10T13:56:33;28.90;1.00
14924;DHT22;7554;43.600;1.480;2023-06-10T13:59:03;29.00;1.00
14924;DHT22;7554;43.600;1.480;2023-06-10T14:01:31;29.00;1.00
14924;DHT22;7554;43.600;1.480;2023-06-10T14:03:58;28.90;1.00
14924;DHT22;7554;43.600;1.480;2023-06-10T14:06:26;28.80;1.00
14924;DHT22;7554;43.600;1.480;2023-06-10T14:08:53;29.10;1.00
14924;DHT22;7554;43.600;1.480;2023-06-10T14:11:23;29.40;1.00
14924;DHT22;7554;43.600;1.480;2023-06-10T14:13:50;29.30;1.00
14924;DHT22;7554;43.600;1.480;2023-06-10T14:16:17;28.90;1.00
14924;DHT22;7554;43.600;1.480;2023-06-10T14:18:45;28.80;1.00
14924;DHT22;7554;43.600;1.480;2023-06-10T14:21:12;28.50;1.00
14924;DHT22;7554;43.600;1.480;2023-06-10T14:23:39;28.60;1.00
14924;DHT22;7554;43.600;1.480;2023-06-10T14:26:07;28.90;1.00
14924;DHT22;7554;43.600;1.480;2023-06-10T14:28:36;29.10;1.00
14924;DHT22;7554;43.600;1.480;2023-06-10T14:31:03;29.20;1.00
14924;DHT22;7554;43.600;1.480;2023-06-10T14:33:30;29.10;1.00
14924;DHT22;7554;43.600;1.480;2023-06-10T14:35:57;29.00;1.00
14924;DHT22;7554;43.600;1.480;2023-06-10T14:38:25;29.10;1.00
14924;DHT22;7554;43.600;1.480;2023-06-10T14:40:52;29.30;1.00
14924;DHT22;7554;43.600;1.480;2023-06-10T14:43:19;29.30;1.00
14924;DHT22;7554;43.600;1.480;2023-06-10T14:45:48;29.30;1.00
14924;DHT22;7554;43.600;1.480;2023-06-10T14:48:16;28.70;1.00
14924;DHT22;7554;43.600;1.480;2023-06-10T14:50:44;28.80;1.00
14924;DHT22;7554;43.600;1.480;2023-06-10T14:53:16;28.90;1.00
14924;DHT22;7554;43.600;1.480;2023-06-10T14:55:44;28.90;1.00
14924;DHT22;7554;43.600;1.480;2023-06-10T14:58:11;28.90;1.00
14924;DHT22;7554;43.600;1.480;2023-06-10T15:00:38;28.30;1.00
14924;DHT22;7554;43.600;1.480;2023-06-10T15:03:08;28.30;1.00
14924;DHT22;7554;43.600;1.480;2023-06-10T15:05:36;28.30;1.00
14924;DHT22;7554;43.600;1.480;2023-06-10T15:08:04;28.60;1.00
14924;DHT22;7554;43.600;1.480;2023-06-10T15:10:31;28.70;1.00
14924;DHT22;7554;43.600;1.480;2023-06-10T15:12:59;28.60;1.00
14924;DHT22;7554;43.600;1.480;2023-06-10T15:15:26;28.50;1.00
14924;DHT22;7554;43.600;1.480;2023-06-10T15:17:53;28.60;1.00
14924;DHT22;7554;43.600;1.480;2023-06-10T15:20:22;28.60;1.00
14924;DHT22;7554;43.600;1.480;2023-06-10T15:22:50;28.40;1.00
14924;DHT22;7554;43.600;1.480;2023-06-10T15:25:17;28.30;1.00
14924;DHT22;7554;43.600;1.480;2023-06-10T15:27:44;28.60;1.00
14924;DHT22;7554;43.600;1.480;2023-06-10T15:30:12;28.60;1.00
14924;DHT22;7554;43.600;1.480;2023-06-10T15:32:39;28.40;1.00
14924;DHT22;7554;43.600;1.480;2023-06-10T15:35:07;28.50;1.00
14924;DHT22;7554;43.600;1.480;2023-06-10T15:37:36;28.70;1.00
14924;DHT22;7554;43.600;1.480;2023-06-10T15:40:04;28.60;1.00
14924;DHT22;7554;43.600;1.480;2023-06-10T15:42:31;28.50;1.00
14924;DHT22;7554;43.600;1.480;2023-06-10T15:44:59;28.20;1.00
14924;DHT22;7554;43.600;1.480;2023-06-10T15:47:26;28.20;1.00
14924;DHT22;7554;43.600;1.480;2023-06-10T15:49:53;28.10;1.00
14924;DHT22;7554;43.600;1.480;2023-06-10T15:52:21;27.90;1.00
14924;DHT22;7554;43.600;1.480;2023-06-10T15:54:49;28.00;1.00
14924;DHT22;7554;43.600;1.480;2023-06-10T15:57:17;28.10;1.00
14924;DHT22;7554;43.600;1.480;2023-06-10T15:59:45;28.10;1.00
14924;DHT22;7554;43.600;1.480;2023-06-10T16:02:12;28.10;1.00
14924;DHT22;7554;43.600;1.480;2023-06-10T16:04:39;27.90;1.00
14924;DHT22;7554;43.600;1.480;2023-06-10T16:07:06;28.00;1.00
14924;DHT22;7554;43.600;1.480;2023-06-10T16:09:34;28.00;1.00
14924;DHT22;7554;43.600;1.480;2023-06-10T16:12:03;28.00;1.00